Time;durP1;ratioP1;P1;durP2;ratioP2;P2;SDS_P1;SDS_P2;PMS_P1;PMS_P2;Temp;Humidity;BMP_temperature;BMP_pressure;BME280_temperature;BME280_humidity;BME280_pressure;Samples;Min_cycle;Max_cycle;Signal;HPM_P1;HPM_P2
2022/12/06 00:01:41;;;;;;;16.77;14.02;;;3.60;99.90;;;;;;6250057;22;20503;-82
2022/12/06 00:04:43;;;;;;;20.52;15.25;;;3.70;99.90;;;;;;6213888;28;20065;-81
2022/12/06 00:07:44;;;;;;;19.90;14.35;;;3.80;99.90;;;;;;6201878;28;20057;-83
2022/12/06 00:10:46;;;;;;;16.67;11.90;;;3.80;99.90;;;;;;6199535;28;20524;-82
2022/12/06 00:13:53;;;;;;;21.60;14.25;;;3.90;99.90;;;;;;6199219;28;20061;-83
2022/12/06 00:16:54;;;;;;;20.25;14.32;;;4.00;99.90;;;;;;6212490;28;20526;-83
2022/12/06 00:19:56;;;;;;;18.42;13.98;;;4.00;99.90;;;;;;6223060;28;20057;-83
2022/12/06 00:22:58;;;;;;;20.98;15.73;;;4.10;99.90;;;;;;6223188;28;20438;-84
2022/12/06 00:26:00;;;;;;;19.50;13.25;;;4.10;99.90;;;;;;6223329;28;20503;-83
2022/12/06 00:29:04;;;;;;;18.48;12.90;;;4.20;99.90;;;;;;6223564;28;20061;-83
2022/12/06 00:32:06;;;;;;;16.60;13.50;;;4.20;99.90;;;;;;6223836;28;20069;-82
2022/12/06 00:35:07;;;;;;;21.08;12.45;;;4.30;99.90;;;;;;6223467;28;20415;-81
2022/12/06 00:38:09;;;;;;;15.88;12.88;;;4.30;99.90;;;;;;6222882;28;20050;-81
2022/12/06 00:41:12;;;;;;;15.50;11.68;;;4.30;99.90;;;;;;6223488;28;20045;-83
2022/12/06 00:44:15;;;;;;;14.65;11.00;;;4.30;99.90;;;;;;6223796;28;20050;-82
2022/12/06 00:47:17;;;;;;;17.52;11.07;;;4.30;99.90;;;;;;6223392;28;20054;-82
2022/12/06 00:50:19;;;;;;;13.93;11.73;;;4.40;99.90;;;;;;6224230;28;20050;-82
2022/12/06 00:53:21;;;;;;;22.45;14.35;;;4.40;99.90;;;;;;6223598;28;20057;-81
2022/12/06 00:56:23;;;;;;;16.20;12.80;;;4.40;99.90;;;;;;6222708;28;20084;-82
2022/12/06 00:59:26;;;;;;;18.88;13.27;;;4.50;99.90;;;;;;6225695;28;20385;-81
2022/12/06 01:02:27;;;;;;;15.88;11.32;;;4.50;99.90;;;;;;6228397;28;20050;-81
2022/12/06 01:05:30;;;;;;;22.13;13.98;;;4.50;99.90;;;;;;6218051;28;20272;-82
2022/12/06 01:08:33;;;;;;;18.88;13.88;;;4.60;99.90;;;;;;6227394;28;20038;-82
2022/12/06 01:11:36;;;;;;;16.65;11.98;;;4.60;99.90;;;;;;6220666;28;20104;-82
2022/12/06 01:14:39;;;;;;;16.02;12.50;;;4.60;99.90;;;;;;6240863;28;20091;-83
2022/12/06 01:17:41;;;;;;;16.55;12.65;;;4.60;99.90;;;;;;6227738;28;20523;-82
2022/12/06 01:20:43;;;;;;;19.45;12.73;;;4.60;99.90;;;;;;6227414;28;20053;-82
2022/12/06 01:23:46;;;;;;;16.67;12.90;;;4.60;99.90;;;;;;6226404;28;20053;-83
2022/12/06 01:26:47;;;;;;;20.60;12.00;;;4.70;99.90;;;;;;6227798;28;20049;-82
2022/12/06 01:29:50;;;;;;;18.98;13.98;;;4.60;99.90;;;;;;6226642;28;20053;-82
2022/12/06 01:32:52;;;;;;;18.77;12.65;;;4.60;99.90;;;;;;6227203;28;20050;-81
2022/12/06 01:35:54;;;;;;;19.17;13.27;;;4.70;99.90;;;;;;6227127;28;20507;-82
2022/12/06 01:38:57;;;;;;;19.05;12.52;;;4.70;99.90;;;;;;6226914;28;20518;-82
2022/12/06 01:42:00;;;;;;;15.68;12.45;;;4.70;99.90;;;;;;6226555;28;20132;-83
2022/12/06 01:45:04;;;;;;;17.65;13.88;;;4.70;99.90;;;;;;6226814;28;20206;-81
2022/12/06 01:48:08;;;;;;;20.17;14.77;;;4.80;99.90;;;;;;6225649;28;20046;-82
2022/12/06 01:51:12;;;;;;;21.13;14.70;;;4.80;99.90;;;;;;6226879;28;20069;-83
2022/12/06 01:54:17;;;;;;;19.50;14.25;;;4.80;99.90;;;;;;6226980;28;20046;-82
2022/12/06 01:57:18;;;;;;;22.83;14.40;;;4.90;99.90;;;;;;6226130;28;20049;-83
2022/12/06 02:00:22;;;;;;;17.05;11.65;;;4.90;99.90;;;;;;6226835;28;20050;-82
2022/12/06 02:03:27;;;;;;;15.63;12.30;;;4.90;99.90;;;;;;6223446;28;20054;-82
2022/12/06 02:06:30;;;;;;;19.67;14.10;;;5.00;99.90;;;;;;6227645;28;20053;-82
2022/12/06 02:09:33;;;;;;;17.30;13.20;;;5.00;99.90;;;;;;6225177;28;20053;-83
2022/12/06 02:12:35;;;;;;;18.98;13.55;;;5.00;99.90;;;;;;6226963;28;20046;-83
2022/12/06 02:15:53;;;;;;;20.65;15.68;;;5.00;99.90;;;;;;6225074;28;20448;-83
2022/12/06 02:19:03;;;;;;;19.30;15.07;;;5.00;99.90;;;;;;6203207;28;20129;-82
2022/12/06 02:22:10;;;;;;;16.48;13.25;;;5.20;99.90;;;;;;6202743;28;20054;-83
2022/12/06 02:25:34;;;;;;;21.15;14.13;;;5.10;99.90;;;;;;6207279;28;20050;-81
2022/12/06 02:28:59;;;;;;;22.20;15.32;;;5.10;99.90;;;;;;6200598;28;20050;-82
2022/12/06 02:32:10;;;;;;;21.35;14.32;;;5.10;99.90;;;;;;6201035;28;20524;-81
2022/12/06 02:35:20;;;;;;;20.75;15.45;;;5.10;99.90;;;;;;6201485;28;20054;-81
2022/12/06 02:38:30;;;;;;;15.05;13.45;;;5.10;99.90;;;;;;6199992;28;20054;-82
2022/12/06 02:41:36;;;;;;;20.58;14.93;;;5.10;99.90;;;;;;6199021;28;20057;-82
2022/12/06 02:44:41;;;;;;;18.27;13.50;;;5.20;99.90;;;;;;6199678;28;20527;-83
2022/12/06 02:47:47;;;;;;;18.52;13.52;;;5.20;99.90;;;;;;6199619;28;20055;-82
2022/12/06 02:51:00;;;;;;;17.65;14.02;;;5.20;99.90;;;;;;6201873;28;20065;-81
2022/12/06 02:54:06;;;;;;;15.82;12.43;;;5.20;99.90;;;;;;6200230;28;20050;-82
2022/12/06 02:57:08;;;;;;;20.88;14.30;;;5.20;99.90;;;;;;6199857;28;20050;-82
2022/12/06 03:00:30;;;;;;;15.70;12.77;;;5.20;99.90;;;;;;6199303;28;20050;-81
2022/12/06 03:04:01;;;;;;;19.63;14.50;;;5.10;99.90;;;;;;6199846;28;20440;-81
2022/12/06 03:07:15;;;;;;;16.92;12.52;;;5.10;99.90;;;;;;6190032;28;20046;-83
2022/12/06 03:10:34;;;;;;;20.95;14.00;;;5.00;99.90;;;;;;6199944;28;20050;-82
2022/12/06 03:13:44;;;;;;;18.20;13.82;;;5.10;99.90;;;;;;6198829;28;20074;-81
2022/12/06 03:16:50;;;;;;;20.05;13.75;;;5.10;99.90;;;;;;6199770;28;20049;-81
2022/12/06 03:19:58;;;;;;;19.33;14.60;;;5.10;99.90;;;;;;6199450;28;20046;-82
2022/12/06 03:23:04;;;;;;;19.80;14.30;;;5.10;99.90;;;;;;6199561;28;20054;-82
2022/12/06 03:26:10;;;;;;;21.30;14.90;;;5.10;99.90;;;;;;6199121;28;20050;-81
2022/12/06 03:29:15;;;;;;;23.40;15.43;;;5.10;99.90;;;;;;6199042;28;20065;-82
2022/12/06 03:32:20;;;;;;;18.65;14.15;;;5.10;99.90;;;;;;6199559;28;20073;-81
2022/12/06 03:35:27;;;;;;;21.27;13.63;;;5.10;99.90;;;;;;6199066;28;20055;-82
2022/12/06 03:38:34;;;;;;;18.92;15.73;;;5.10;99.90;;;;;;6200423;28;20049;-81
2022/12/06 03:41:42;;;;;;;22.33;15.48;;;5.10;99.90;;;;;;6199965;28;20062;-80
2022/12/06 03:44:44;;;;;;;21.23;13.75;;;5.10;99.90;;;;;;6199633;28;20057;-83
2022/12/06 03:47:52;;;;;;;18.70;13.18;;;5.20;99.90;;;;;;6198969;28;20072;-81
2022/12/06 03:50:59;;;;;;;22.60;15.50;;;5.20;99.90;;;;;;6199876;28;20419;-81
2022/12/06 03:54:05;;;;;;;18.70;13.63;;;5.20;99.90;;;;;;6200076;28;20049;-82
2022/12/06 03:57:07;;;;;;;17.88;12.88;;;5.20;99.90;;;;;;6200161;28;20054;-82
2022/12/06 04:00:09;;;;;;;19.85;13.50;;;5.20;99.90;;;;;;6199755;28;20042;-82
2022/12/06 04:03:11;;;;;;;25.27;15.93;;;5.20;99.90;;;;;;6200434;28;20050;-81
2022/12/06 04:06:14;;;;;;;20.40;14.23;;;5.30;99.90;;;;;;6199871;28;20512;-82
2022/12/06 04:18:09;;;;;;;24.25;15.23;;;5.30;99.90;;;;;;6155180;28;20046;-81
2022/12/06 04:19:28;;;;;;;17.33;13.18;;;5.30;99.90;;;;;;6222906;28;20128;-81
2022/12/06 04:25:50;;;;;;;20.42;13.70;;;5.30;99.90;;;;;;6223939;28;20050;-82
2022/12/06 04:38:52;;;;;;;22.13;14.55;;;5.30;99.90;;;;;;6228482;28;20046;-81
2022/12/06 04:45:13;;;;;;;18.48;13.02;;;5.30;99.90;;;;;;6228205;28;20470;-81
2022/12/06 04:48:15;;;;;;;20.02;13.07;;;5.30;99.90;;;;;;6227325;28;20431;-81
2022/12/06 04:51:17;;;;;;;21.25;15.65;;;5.20;99.90;;;;;;6228477;28;20496;-81
2022/12/06 04:54:20;;;;;;;20.90;15.50;;;5.20;99.90;;;;;;6229431;28;20073;-81
2022/12/06 04:57:21;;;;;;;21.13;15.43;;;5.20;99.90;;;;;;6227836;28;20061;-82
2022/12/06 05:00:23;;;;;;;21.85;15.98;;;5.20;99.90;;;;;;6227447;28;20061;-82
2022/12/06 05:03:25;;;;;;;20.23;14.43;;;5.10;99.90;;;;;;6228034;28;20045;-82
2022/12/06 05:06:26;;;;;;;26.10;16.02;;;5.10;99.90;;;;;;6227842;28;20480;-80
2022/12/06 05:09:29;;;;;;;25.15;17.00;;;5.10;99.90;;;;;;6227267;28;20042;-82
2022/12/06 05:12:31;;;;;;;23.48;16.90;;;5.10;99.90;;;;;;6227883;28;20056;-82
2022/12/06 05:15:33;;;;;;;28.10;16.55;;;5.10;99.90;;;;;;6227735;28;20053;-81
2022/12/06 05:18:35;;;;;;;32.05;19.17;;;5.10;99.90;;;;;;6227628;28;20506;-81
2022/12/06 05:21:37;;;;;;;24.33;18.30;;;5.00;99.90;;;;;;6227409;28;20057;-81
2022/12/06 05:24:40;;;;;;;25.75;16.98;;;5.00;99.90;;;;;;6228916;28;20042;-80
2022/12/06 05:27:41;;;;;;;27.23;18.50;;;5.10;99.90;;;;;;6227261;28;20050;-82
2022/12/06 05:30:43;;;;;;;27.88;20.98;;;5.10;99.90;;;;;;6227145;28;20046;-82
2022/12/06 05:33:45;;;;;;;34.38;18.90;;;5.10;99.90;;;;;;6226724;28;20054;-82
2022/12/06 05:36:47;;;;;;;25.25;17.80;;;5.00;99.90;;;;;;6226172;28;20049;-81
2022/12/06 05:39:50;;;;;;;30.48;18.73;;;5.00;99.90;;;;;;6226098;28;20081;-81
2022/12/06 05:42:51;;;;;;;30.05;19.77;;;5.00;99.90;;;;;;6226611;28;20061;-81
2022/12/06 05:45:53;;;;;;;32.25;20.27;;;5.10;99.90;;;;;;6226233;28;20049;-82
2022/12/06 05:48:55;;;;;;;26.83;18.75;;;5.10;99.90;;;;;;6226126;28;20049;-81
2022/12/06 05:51:56;;;;;;;37.15;20.98;;;5.10;99.90;;;;;;6226489;28;20045;-81
2022/12/06 05:54:59;;;;;;;27.20;18.55;;;5.10;99.90;;;;;;6226801;28;20057;-81
2022/12/06 05:58:01;;;;;;;30.42;19.92;;;5.10;99.90;;;;;;6225849;28;20084;-81
2022/12/06 06:01:04;;;;;;;30.70;19.40;;;5.10;99.90;;;;;;6210677;28;20530;-80
2022/12/06 06:04:06;;;;;;;39.53;20.42;;;5.10;99.90;;;;;;6227752;22;20058;-83
2022/12/06 06:07:07;;;;;;;36.00;19.77;;;5.10;99.90;;;;;;6230804;28;20054;-87
2022/12/06 06:10:11;;;;;;;39.50;23.33;;;5.10;99.90;;;;;;6229606;28;20045;-86
2022/12/06 06:13:13;;;;;;;38.70;20.60;;;5.20;99.90;;;;;;6230512;28;20078;-85
2022/12/06 06:16:14;;;;;;;29.02;18.83;;;5.10;99.90;;;;;;6216626;28;20554;-83
2022/12/06 06:19:16;;;;;;;42.97;25.40;;;5.20;99.90;;;;;;6204263;28;20563;-84
2022/12/06 06:22:20;;;;;;;37.33;20.63;;;5.20;99.90;;;;;;6204867;28;20051;-86
2022/12/06 06:25:23;;;;;;;34.28;20.52;;;5.10;99.90;;;;;;6204852;28;20042;-84
2022/12/06 06:28:25;;;;;;;34.92;20.27;;;5.10;99.90;;;;;;6204354;28;20042;-84
2022/12/06 06:31:27;;;;;;;35.55;19.27;;;5.10;99.90;;;;;;6204557;28;20049;-82
2022/12/06 06:34:29;;;;;;;33.33;21.58;;;5.10;99.90;;;;;;6205818;28;20496;-84
2022/12/06 06:37:31;;;;;;;30.17;20.55;;;5.10;99.90;;;;;;6203909;28;20065;-84
2022/12/06 06:40:35;;;;;;;35.47;22.27;;;5.10;99.90;;;;;;6204741;28;20074;-84
2022/12/06 06:43:37;;;;;;;34.33;22.45;;;5.10;99.90;;;;;;6203992;28;20065;-85
2022/12/06 06:46:38;;;;;;;38.22;20.42;;;5.20;99.90;;;;;;6204693;28;20057;-83
2022/12/06 06:49:40;;;;;;;34.80;21.92;;;5.10;99.90;;;;;;6203608;28;20500;-82
2022/12/06 06:52:42;;;;;;;36.30;19.85;;;5.20;99.90;;;;;;6203462;28;20057;-83
2022/12/06 06:55:46;;;;;;;38.30;21.75;;;5.10;99.90;;;;;;6202635;28;20057;-84
2022/12/06 06:58:48;;;;;;;33.30;21.35;;;5.20;99.90;;;;;;6204332;28;20097;-82
2022/12/06 07:01:50;;;;;;;35.08;20.88;;;5.20;99.90;;;;;;6203960;28;20047;-84
2022/12/06 07:04:52;;;;;;;32.20;19.05;;;5.20;99.90;;;;;;6203639;28;20051;-84
2022/12/06 07:07:54;;;;;;;32.95;21.35;;;5.30;99.90;;;;;;6203310;28;20057;-83
2022/12/06 07:10:57;;;;;;;30.52;20.23;;;5.30;99.90;;;;;;6204023;28;20089;-82
2022/12/06 07:13:59;;;;;;;32.50;21.38;;;5.30;99.90;;;;;;6202719;28;20058;-83
2022/12/06 07:17:01;;;;;;;36.08;21.15;;;5.30;99.90;;;;;;6203685;28;20053;-81
2022/12/06 07:20:03;;;;;;;37.67;21.40;;;5.30;99.90;;;;;;6202801;28;20061;-83
2022/12/06 07:23:05;;;;;;;33.53;21.27;;;5.30;99.90;;;;;;6202287;28;20492;-82
2022/12/06 07:26:11;;;;;;;30.52;19.60;;;5.30;99.90;;;;;;6203074;28;20051;-82
2022/12/06 07:29:13;;;;;;;34.83;21.13;;;5.30;99.90;;;;;;6202983;28;20050;-84
2022/12/06 07:32:15;;;;;;;33.42;19.75;;;5.40;99.90;;;;;;6203681;28;20046;-85
2022/12/06 07:35:16;;;;;;;32.33;17.52;;;5.40;99.90;;;;;;6204532;28;20070;-83
2022/12/06 07:38:18;;;;;;;34.28;20.50;;;5.40;99.90;;;;;;6202563;28;20061;-84
2022/12/06 07:48:01;;;;;;;32.58;19.15;;;5.50;99.90;;;;;;6203043;28;20054;-81
2022/12/06 07:51:04;;;;;;;29.15;19.73;;;5.40;99.90;;;;;;6203376;28;20053;-83
2022/12/06 07:54:06;;;;;;;31.02;18.88;;;5.40;99.90;;;;;;6225856;28;20049;-84
2022/12/06 07:57:09;;;;;;;36.00;22.02;;;5.40;99.90;;;;;;6254007;28;20045;-85
2022/12/06 08:00:14;;;;;;;32.20;20.75;;;5.40;99.90;;;;;;6252676;28;20045;-82
2022/12/06 08:03:16;;;;;;;33.13;18.77;;;5.50;99.90;;;;;;6253205;28;20068;-83
2022/12/06 08:06:18;;;;;;;27.00;17.60;;;5.50;99.90;;;;;;6255318;28;20102;-85
2022/12/06 08:09:20;;;;;;;27.90;17.73;;;5.50;99.90;;;;;;6251394;28;20049;-82
2022/12/06 08:12:23;;;;;;;27.33;16.95;;;5.50;99.90;;;;;;6234422;28;20476;-81
2022/12/06 08:15:25;;;;;;;24.90;15.25;;;5.50;99.90;;;;;;6214496;28;20081;-83
2022/12/06 08:18:27;;;;;;;20.60;14.63;;;5.60;99.90;;;;;;6201932;28;20050;-85
2022/12/06 08:21:29;;;;;;;22.08;13.80;;;5.60;99.90;;;;;;6202300;28;20057;-85
2022/12/06 08:24:31;;;;;;;15.20;10.82;;;5.60;99.90;;;;;;6202470;28;20507;-83
2022/12/06 08:27:34;;;;;;;14.35;10.00;;;5.60;99.90;;;;;;6202246;28;20508;-83
2022/12/06 08:30:39;;;;;;;14.27;9.93;;;5.60;99.90;;;;;;6203575;28;20046;-84
2022/12/06 08:33:41;;;;;;;15.93;10.35;;;5.60;99.90;;;;;;6202494;28;20042;-84
2022/12/06 08:36:44;;;;;;;15.73;9.40;;;5.60;99.90;;;;;;6207710;28;20053;-83
2022/12/06 08:39:45;;;;;;;11.40;8.65;;;5.60;99.90;;;;;;6205560;28;20050;-85
2022/12/06 08:42:48;;;;;;;13.27;8.48;;;5.70;99.90;;;;;;6204330;28;20061;-81
2022/12/06 08:45:51;;;;;;;8.95;6.57;;;5.70;99.90;;;;;;6204448;28;20053;-83
2022/12/06 08:48:53;;;;;;;12.13;8.13;;;5.70;99.90;;;;;;6203313;28;20073;-83
2022/12/06 08:51:54;;;;;;;12.98;7.88;;;5.70;99.90;;;;;;6202857;28;20046;-85
2022/12/06 08:54:56;;;;;;;7.53;5.95;;;5.70;99.90;;;;;;6203646;28;20047;-84
2022/12/06 08:57:59;;;;;;;8.07;6.57;;;5.70;99.90;;;;;;6202451;28;20057;-83
2022/12/06 09:01:01;;;;;;;9.93;7.22;;;5.70;99.90;;;;;;6203624;28;20447;-82
2022/12/06 09:04:03;;;;;;;12.55;6.90;;;5.70;99.90;;;;;;6202332;28;20063;-81
2022/12/06 09:07:05;;;;;;;10.38;7.07;;;5.70;99.90;;;;;;6203823;28;20057;-84
2022/12/06 09:10:08;;;;;;;10.95;6.90;;;5.70;99.90;;;;;;6202766;28;20038;-83
2022/12/06 09:13:11;;;;;;;12.18;8.20;;;5.70;99.90;;;;;;6224948;28;20065;-79
2022/12/06 09:16:15;;;;;;;13.32;8.35;;;5.60;99.90;;;;;;6220912;28;20054;-85
2022/12/06 09:19:17;;;;;;;10.88;6.47;;;5.60;99.90;;;;;;6210902;28;20062;-84
2022/12/06 09:22:19;;;;;;;12.70;6.75;;;5.60;99.90;;;;;;6213423;28;20053;-84
2022/12/06 09:25:20;;;;;;;11.43;6.85;;;5.60;99.90;;;;;;6212695;28;20060;-84
2022/12/06 09:28:23;;;;;;;8.50;5.78;;;5.60;99.90;;;;;;6211492;28;20140;-84
2022/12/06 09:31:25;;;;;;;8.13;6.63;;;5.50;99.90;;;;;;6210257;28;20072;-83
2022/12/06 09:34:27;;;;;;;15.20;8.45;;;5.50;99.90;;;;;;6211070;28;20047;-83
2022/12/06 09:37:29;;;;;;;12.40;7.25;;;5.40;99.90;;;;;;6209565;28;20053;-84
2022/12/06 09:40:33;;;;;;;17.75;8.15;;;5.50;99.90;;;;;;6209429;28;20050;-83
2022/12/06 09:43:50;;;;;;;9.73;6.75;;;5.50;99.90;;;;;;6209524;28;20054;-83
2022/12/06 09:47:06;;;;;;;12.82;8.57;;;5.50;99.90;;;;;;6210627;28;20054;-83
2022/12/06 09:50:17;;;;;;;18.25;10.13;;;5.60;99.90;;;;;;6208864;28;20043;-83
2022/12/06 09:53:26;;;;;;;11.30;7.55;;;5.60;99.90;;;;;;6207943;28;20050;-83
2022/12/06 09:56:35;;;;;;;10.38;7.43;;;5.70;99.90;;;;;;6179668;28;20108;-81
2022/12/06 09:59:46;;;;;;;10.32;8.20;;;5.70;99.90;;;;;;6231724;28;20050;-84
2022/12/06 10:03:13;;;;;;;9.75;7.43;;;5.80;99.90;;;;;;6207449;28;20058;-81
2022/12/06 10:06:18;;;;;;;11.27;7.50;;;5.80;99.90;;;;;;6240486;28;20041;-84
2022/12/06 10:09:35;;;;;;;10.98;7.63;;;5.80;99.90;;;;;;6238049;28;20499;-81
2022/12/06 10:12:51;;;;;;;8.88;7.90;;;5.90;99.90;;;;;;6250643;28;20056;-82
2022/12/06 10:16:04;;;;;;;12.20;7.88;;;5.80;99.90;;;;;;6251803;28;20099;-81
2022/12/06 10:19:16;;;;;;;10.52;7.78;;;5.90;99.90;;;;;;6234930;28;20046;-81
2022/12/06 10:22:26;;;;;;;11.90;8.15;;;5.90;99.90;;;;;;6226775;28;20042;-85
2022/12/06 10:25:34;;;;;;;10.90;8.05;;;5.90;99.90;;;;;;6227844;28;20060;-85
2022/12/06 10:28:44;;;;;;;10.18;7.72;;;5.90;99.90;;;;;;6228550;28;20046;-83
2022/12/06 10:31:55;;;;;;;9.85;6.93;;;5.90;99.90;;;;;;6227168;28;20414;-83
2022/12/06 10:34:58;;;;;;;11.43;6.97;;;5.90;99.90;;;;;;6239888;28;20045;-82
2022/12/06 10:38:12;;;;;;;12.48;7.60;;;6.00;99.90;;;;;;6251439;28;20049;-83
2022/12/06 10:41:21;;;;;;;11.82;6.72;;;5.90;99.90;;;;;;6250318;28;20052;-81
2022/12/06 10:44:31;;;;;;;10.45;6.90;;;5.90;99.90;;;;;;6252376;28;20066;-84
2022/12/06 10:47:40;;;;;;;12.95;8.73;;;5.90;99.90;;;;;;6249865;28;20104;-83
2022/12/06 10:50:46;;;;;;;10.13;8.13;;;5.90;99.90;;;;;;6251277;28;20068;-85
2022/12/06 10:53:55;;;;;;;11.85;9.45;;;6.00;99.90;;;;;;6249411;28;20407;-81
2022/12/06 10:57:02;;;;;;;12.18;7.07;;;6.10;99.90;;;;;;6249689;28;20041;-82
2022/12/06 11:00:13;;;;;;;9.63;6.68;;;6.10;99.90;;;;;;6241713;28;20569;-82
2022/12/06 11:03:20;;;;;;;12.00;8.30;;;6.10;99.90;;;;;;6222802;28;20057;-83
2022/12/06 11:06:28;;;;;;;9.50;6.95;;;6.10;99.90;;;;;;6241315;28;20068;-85
2022/12/06 11:09:33;;;;;;;;;;;6.00;99.90;;;;;;6248781;28;20057;-82
2022/12/06 11:12:38;;;;;;;7.90;6.45;;;6.00;99.90;;;;;;6248551;28;20063;-83
2022/12/06 11:15:46;;;;;;;10.57;7.85;;;6.00;99.90;;;;;;6249614;28;20522;-83
2022/12/06 11:18:49;;;;;;;11.77;8.27;;;6.00;99.90;;;;;;6249698;28;20053;-86
2022/12/06 11:21:56;;;;;;;12.43;8.85;;;6.00;99.90;;;;;;6249409;28;20049;-85
2022/12/06 11:25:05;;;;;;;14.25;7.45;;;6.00;99.90;;;;;;6250257;28;20057;-85
2022/12/06 11:28:20;;;;;;;10.57;7.05;;;6.00;99.90;;;;;;6248991;28;20052;-83
2022/12/06 11:31:26;;;;;;;9.88;7.22;;;6.10;99.90;;;;;;6249692;28;20080;-82
2022/12/06 11:34:36;;;;;;;13.27;8.48;;;6.10;99.90;;;;;;6240910;28;20530;-84
2022/12/06 11:37:37;;;;;;;9.05;6.13;;;6.10;99.90;;;;;;6248474;28;20048;-84
2022/12/06 11:40:43;;;;;;;10.98;6.78;;;6.10;99.90;;;;;;6249396;28;20491;-84
2022/12/06 11:43:45;;;;;;;9.60;7.28;;;6.10;99.90;;;;;;6249034;28;20124;-83
2022/12/06 11:46:53;;;;;;;10.18;7.00;;;6.10;99.90;;;;;;6249704;28;20049;-85
2022/12/06 11:49:56;;;;;;;14.10;8.13;;;6.20;99.90;;;;;;6249139;28;20053;-82
2022/12/06 11:53:02;;;;;;;13.20;7.72;;;6.10;99.90;;;;;;6241040;28;20109;-84
2022/12/06 11:56:11;;;;;;;13.25;8.13;;;6.10;99.90;;;;;;6251254;28;20056;-85
2022/12/06 11:59:23;;;;;;;9.23;7.47;;;6.10;99.90;;;;;;6249816;28;20632;-86
2022/12/06 12:02:31;;;;;;;11.15;7.60;;;6.10;99.90;;;;;;6238537;28;20050;-85
2022/12/06 12:05:37;;;;;;;;;;;6.20;99.90;;;;;;6226634;28;20049;-84
2022/12/06 12:08:39;;;;;;;11.43;8.07;;;6.20;99.90;;;;;;6224093;28;19929;-84
2022/12/06 12:11:41;;;;;;;10.98;8.73;;;6.20;99.90;;;;;;6224561;28;20053;-84
2022/12/06 12:14:44;;;;;;;12.68;9.30;;;6.20;99.90;;;;;;6250728;28;20059;-83
2022/12/06 12:17:49;;;;;;;11.88;8.27;;;6.20;99.90;;;;;;6251288;28;20049;-85
2022/12/06 12:20:54;;;;;;;9.70;6.95;;;6.30;99.90;;;;;;6253243;28;20056;-87
2022/12/06 12:23:57;;;;;;;10.75;8.35;;;6.30;99.90;;;;;;6254017;28;20538;-85
2022/12/06 12:26:58;;;;;;;22.92;19.48;;;6.30;99.90;;;;;;6249657;28;20098;-83
2022/12/06 12:30:20;;;;;;;32.30;26.60;;;6.40;99.90;;;;;;6226228;28;20050;-82
2022/12/06 12:33:23;;;;;;;14.60;10.63;;;6.40;99.90;;;;;;6232991;28;20044;-83
2022/12/06 12:36:28;;;;;;;17.23;12.65;;;6.40;99.90;;;;;;6243384;28;20045;-84
2022/12/06 12:39:38;;;;;;;26.98;18.98;;;6.40;99.90;;;;;;6251560;28;20050;-84
2022/12/06 12:42:40;;;;;;;11.82;9.00;;;6.50;99.90;;;;;;6252392;28;20479;-83
2022/12/06 12:46:17;;;;;;;13.52;12.07;;;6.50;99.90;;;;;;6250943;28;20053;-83
2022/12/06 12:49:30;;;;;;;24.75;22.35;;;6.50;99.90;;;;;;6249151;28;20041;-84
2022/12/06 12:52:39;;;;;;;18.05;14.45;;;6.50;99.90;;;;;;6268247;28;20060;-81
2022/12/06 12:55:41;;;;;;;13.55;8.55;;;6.60;99.90;;;;;;6272369;28;20088;-85
2022/12/06 12:58:44;;;;;;;13.00;11.63;;;6.50;99.90;;;;;;6265572;28;20049;-84
2022/12/06 13:01:50;;;;;;;14.02;12.52;;;6.50;99.90;;;;;;6240648;28;20046;-85
2022/12/06 13:04:56;;;;;;;12.93;11.15;;;6.60;99.90;;;;;;6246998;28;20048;-84
2022/12/06 13:08:06;;;;;;;12.98;10.23;;;6.60;99.90;;;;;;6234033;28;20046;-85
2022/12/06 13:11:08;;;;;;;10.70;8.63;;;6.70;99.90;;;;;;6225898;28;20037;-84
2022/12/06 13:14:17;;;;;;;12.23;8.50;;;6.60;99.90;;;;;;6245531;28;20503;-85
2022/12/06 13:17:22;;;;;;;18.55;10.65;;;6.60;99.90;;;;;;6256075;28;20053;-84
2022/12/06 13:20:27;;;;;;;21.25;14.02;;;6.50;99.90;;;;;;6217997;28;20042;-87
2022/12/06 13:23:35;;;;;;;14.85;11.27;;;6.50;99.90;;;;;;6207641;28;20046;-82
2022/12/06 13:26:42;;;;;;;15.98;10.38;;;6.50;99.90;;;;;;6207944;28;20078;-83
2022/12/06 13:29:47;;;;;;;17.55;14.77;;;6.50;99.90;;;;;;6206796;28;20526;-84
2022/12/06 13:32:52;;;;;;;13.75;12.10;;;6.50;99.90;;;;;;6208352;28;20490;-84
2022/12/06 13:36:00;;;;;;;11.10;9.43;;;6.60;99.90;;;;;;6242731;28;20045;-84
2022/12/06 13:39:26;;;;;;;10.32;8.43;;;6.60;99.90;;;;;;6252969;28;20060;-83
2022/12/06 13:42:44;;;;;;;9.65;8.25;;;6.50;99.90;;;;;;6252758;28;20050;-84
2022/12/06 13:45:47;;;;;;;13.65;11.05;;;6.40;99.90;;;;;;6201766;28;20547;-82
2022/12/06 13:48:50;;;;;;;23.17;17.38;;;6.40;99.90;;;;;;6201418;28;20085;-83
2022/12/06 13:51:52;;;;;;;107.35;67.32;;;6.40;99.90;;;;;;6202393;28;20054;-84
2022/12/06 13:54:55;;;;;;;23.52;18.58;;;6.40;99.90;;;;;;6202530;28;20054;-84
2022/12/06 13:58:35;;;;;;;11.77;8.95;;;6.40;99.90;;;;;;6202208;28;20054;-84
2022/12/06 14:01:41;;;;;;;58.40;30.75;;;6.40;99.90;;;;;;6203922;28;20062;-83
2022/12/06 14:04:43;;;;;;;128.43;74.75;;;6.40;99.90;;;;;;6239982;28;20525;-83
2022/12/06 14:07:45;;;;;;;39.20;21.65;;;6.50;99.90;;;;;;6216398;28;20449;-84
2022/12/06 14:10:48;;;;;;;14.90;9.07;;;6.50;99.90;;;;;;6252342;22;20050;-79
2022/12/06 14:14:00;;;;;;;9.32;7.30;;;6.50;99.90;;;;;;6202732;28;20491;-81
2022/12/06 14:17:05;;;;;;;20.70;11.43;;;6.40;99.90;;;;;;6203664;28;20057;-80
2022/12/06 14:20:19;;;;;;;10.32;8.27;;;6.40;99.90;;;;;;6203500;28;20049;-79
2022/12/06 14:23:27;;;;;;;10.68;8.95;;;6.40;99.90;;;;;;6204304;28;20046;-80
2022/12/06 14:26:33;;;;;;;10.30;7.25;;;6.40;99.90;;;;;;6205279;28;20050;-80
2022/12/06 14:29:35;;;;;;;14.95;8.20;;;6.30;99.90;;;;;;6205406;28;20073;-80
2022/12/06 14:32:39;;;;;;;10.88;7.35;;;6.20;99.90;;;;;;6207523;28;20050;-82
2022/12/06 14:35:40;;;;;;;10.20;7.43;;;6.20;99.90;;;;;;6211163;28;20530;-79
2022/12/06 14:38:42;;;;;;;15.60;10.18;;;6.20;99.90;;;;;;6205312;28;20134;-79
2022/12/06 14:45:15;;;;;;;15.43;10.93;;;6.10;99.90;;;;;;6203706;28;20046;-79
2022/12/06 14:48:17;;;;;;;13.48;10.35;;;6.00;99.90;;;;;;6203827;28;20046;-80
2022/12/06 14:51:19;;;;;;;9.52;7.45;;;6.00;99.90;;;;;;6204711;28;20058;-80
2022/12/06 14:54:33;;;;;;;12.60;7.15;;;6.00;99.90;;;;;;6205266;28;20480;-80
2022/12/06 14:57:38;;;;;;;12.77;7.85;;;6.00;99.90;;;;;;6205202;28;20467;-80
2022/12/06 15:00:53;;;;;;;9.80;7.28;;;6.00;99.90;;;;;;6205475;28;20066;-81
2022/12/06 15:03:59;;;;;;;15.10;9.15;;;6.00;99.90;;;;;;6206869;28;20054;-80
2022/12/06 15:07:01;;;;;;;9.82;7.53;;;5.90;99.90;;;;;;6204757;28;20057;-80
2022/12/06 15:10:24;;;;;;;12.45;8.15;;;5.90;99.90;;;;;;6204878;28;20057;-80
2022/12/06 15:13:28;;;;;;;12.88;7.53;;;5.80;99.90;;;;;;6205537;28;20047;-80
2022/12/06 15:16:29;;;;;;;11.82;8.80;;;5.80;99.90;;;;;;6205221;28;20058;-81
2022/12/06 15:19:33;;;;;;;10.05;7.22;;;5.80;99.90;;;;;;6204888;28;20054;-81
2022/12/06 15:22:37;;;;;;;10.45;7.25;;;5.70;99.90;;;;;;6205930;28;20516;-81
2022/12/06 15:25:38;;;;;;;10.02;8.02;;;5.70;99.90;;;;;;6204631;28;20057;-81
2022/12/06 15:28:41;;;;;;;11.52;7.97;;;5.60;99.90;;;;;;6205178;28;20046;-81
2022/12/06 15:31:45;;;;;;;13.18;7.38;;;5.60;99.90;;;;;;6205605;28;20054;-81
2022/12/06 15:34:47;;;;;;;44.50;20.90;;;5.60;99.90;;;;;;6205263;28;20042;-81
2022/12/06 15:37:48;;;;;;;13.05;9.85;;;5.60;99.90;;;;;;6213968;28;20050;-81
2022/12/06 15:40:52;;;;;;;13.38;7.82;;;5.60;99.90;;;;;;6204876;28;20046;-82
2022/12/06 15:43:56;;;;;;;15.65;8.63;;;5.60;99.90;;;;;;6204386;28;20050;-81
2022/12/06 15:46:58;;;;;;;11.35;8.57;;;5.60;99.90;;;;;;6204249;28;20050;-81
2022/12/06 15:50:00;;;;;;;13.70;8.50;;;5.60;99.90;;;;;;6212778;28;20058;-81
2022/12/06 15:53:02;;;;;;;10.15;7.15;;;5.60;99.90;;;;;;6216818;28;20061;-81
2022/12/06 15:56:04;;;;;;;9.25;7.43;;;5.70;99.90;;;;;;6215147;28;20542;-81
2022/12/06 15:59:07;;;;;;;10.65;8.38;;;5.70;99.90;;;;;;6212835;28;20540;-82
2022/12/06 16:02:14;;;;;;;11.00;8.23;;;5.60;99.90;;;;;;6205399;28;20053;-81
2022/12/06 16:05:16;;;;;;;12.02;8.18;;;5.60;99.90;;;;;;6204801;28;20134;-83
2022/12/06 16:08:18;;;;;;;10.57;8.77;;;5.60;99.90;;;;;;6204598;28;20043;-84
2022/12/06 16:11:22;;;;;;;10.68;7.53;;;5.60;99.90;;;;;;6202510;28;20396;-81
2022/12/06 16:14:25;;;;;;;11.90;6.63;;;5.60;99.90;;;;;;6204554;28;20623;-84
2022/12/06 16:17:27;;;;;;;8.95;7.10;;;5.60;99.90;;;;;;6199848;28;20050;-83
2022/12/06 16:20:32;;;;;;;10.30;7.93;;;5.60;99.90;;;;;;6177903;28;20054;-83
2022/12/06 16:27:00;;;;;;;10.75;8.80;;;5.50;99.90;;;;;;6203174;28;20054;-83
2022/12/06 16:30:04;;;;;;;9.85;7.35;;;5.40;99.90;;;;;;6205872;28;20566;-83
2022/12/06 16:33:06;;;;;;;27.35;12.18;;;5.40;99.90;;;;;;6209152;28;20125;-84
2022/12/06 16:36:12;;;;;;;8.93;6.50;;;5.50;99.90;;;;;;6207384;28;20073;-81